sensor_id;sensor_type;location;lat;lon;timestamp;P1;durP1;ratioP1;P2;durP2;ratioP2
42194;SDS011;27863;49.440;11.102;2022-12-07T00:03:00;5.37;;;4.97;;
42194;SDS011;27863;49.440;11.102;2022-12-07T00:06:04;5.57;;;5.07;;
42194;SDS011;27863;49.440;11.102;2022-12-07T00:09:10;5.33;;;4.83;;
42194;SDS011;27863;49.440;11.102;2022-12-07T00:12:15;5.63;;;5.23;;
42194;SDS011;27863;49.440;11.102;2022-12-07T00:15:15;5.70;;;5.10;;
42194;SDS011;27863;49.440;11.102;2022-12-07T00:18:19;5.90;;;5.50;;
42194;SDS011;27863;49.440;11.102;2022-12-07T00:21:21;5.70;;;5.30;;
42194;SDS011;27863;49.440;11.102;2022-12-07T00:24:23;5.70;;;5.20;;
42194;SDS011;27863;49.440;11.102;2022-12-07T00:27:24;5.87;;;5.37;;
42194;SDS011;27863;49.440;11.102;2022-12-07T00:30:25;6.03;;;5.53;;
42194;SDS011;27863;49.440;11.102;2022-12-07T00:33:25;5.93;;;5.33;;
42194;SDS011;27863;49.440;11.102;2022-12-07T00:36:28;5.63;;;5.13;;
42194;SDS011;27863;49.440;11.102;2022-12-07T00:39:29;5.83;;;5.33;;
42194;SDS011;27863;49.440;11.102;2022-12-07T00:42:29;5.73;;;5.23;;
42194;SDS011;27863;49.440;11.102;2022-12-07T00:45:31;6.10;;;5.60;;
42194;SDS011;27863;49.440;11.102;2022-12-07T00:48:32;6.47;;;5.87;;
42194;SDS011;27863;49.440;11.102;2022-12-07T00:51:32;6.83;;;6.27;;
42194;SDS011;27863;49.440;11.102;2022-12-07T00:54:33;6.47;;;5.93;;
42194;SDS011;27863;49.440;11.102;2022-12-07T00:57:33;6.30;;;5.77;;
42194;SDS011;27863;49.440;11.102;2022-12-07T01:00:38;6.20;;;5.70;;
42194;SDS011;27863;49.440;11.102;2022-12-07T01:03:39;6.60;;;6.10;;
42194;SDS011;27863;49.440;11.102;2022-12-07T01:06:41;5.13;;;4.73;;
42194;SDS011;27863;49.440;11.102;2022-12-07T01:09:42;7.23;;;6.50;;
42194;SDS011;27863;49.440;11.102;2022-12-07T01:12:43;6.30;;;5.70;;
42194;SDS011;27863;49.440;11.102;2022-12-07T01:15:44;6.50;;;5.97;;
42194;SDS011;27863;49.440;11.102;2022-12-07T01:18:49;6.07;;;5.57;;
42194;SDS011;27863;49.440;11.102;2022-12-07T01:21:51;5.90;;;5.40;;
42194;SDS011;27863;49.440;11.102;2022-12-07T01:24:51;6.57;;;5.97;;
42194;SDS011;27863;49.440;11.102;2022-12-07T01:27:53;7.43;;;6.70;;
42194;SDS011;27863;49.440;11.102;2022-12-07T01:34:00;6.40;;;5.90;;
42194;SDS011;27863;49.440;11.102;2022-12-07T01:37:01;6.87;;;6.27;;
42194;SDS011;27863;49.440;11.102;2022-12-07T01:40:02;6.87;;;6.27;;
42194;SDS011;27863;49.440;11.102;2022-12-07T01:43:04;6.67;;;6.07;;
42194;SDS011;27863;49.440;11.102;2022-12-07T01:46:13;6.27;;;5.77;;
42194;SDS011;27863;49.440;11.102;2022-12-07T01:49:18;6.77;;;6.17;;
42194;SDS011;27863;49.440;11.102;2022-12-07T01:52:27;7.17;;;6.57;;
42194;SDS011;27863;49.440;11.102;2022-12-07T01:55:29;7.97;;;7.23;;
42194;SDS011;27863;49.440;11.102;2022-12-07T01:58:31;7.10;;;6.40;;
42194;SDS011;27863;49.440;11.102;2022-12-07T02:01:31;6.87;;;6.23;;
42194;SDS011;27863;49.440;11.102;2022-12-07T02:04:33;6.90;;;6.27;;
42194;SDS011;27863;49.440;11.102;2022-12-07T02:07:36;7.37;;;6.70;;
42194;SDS011;27863;49.440;11.102;2022-12-07T02:10:39;9.03;;;6.20;;
42194;SDS011;27863;49.440;11.102;2022-12-07T02:13:40;8.00;;;7.30;;
42194;SDS011;27863;49.440;11.102;2022-12-07T02:30:09;7.87;;;7.17;;
42194;SDS011;27863;49.440;11.102;2022-12-07T02:33:16;8.07;;;7.27;;
42194;SDS011;27863;49.440;11.102;2022-12-07T02:36:24;7.80;;;7.20;;
42194;SDS011;27863;49.440;11.102;2022-12-07T02:39:44;8.00;;;7.30;;
42194;SDS011;27863;49.440;11.102;2022-12-07T02:42:50;8.57;;;7.77;;
42194;SDS011;27863;49.440;11.102;2022-12-07T02:45:55;8.47;;;7.63;;
42194;SDS011;27863;49.440;11.102;2022-12-07T02:49:03;8.40;;;7.70;;
42194;SDS011;27863;49.440;11.102;2022-12-07T02:52:04;8.67;;;7.87;;
42194;SDS011;27863;49.440;11.102;2022-12-07T02:55:05;7.73;;;7.10;;
42194;SDS011;27863;49.440;11.102;2022-12-07T02:58:30;8.37;;;7.53;;
42194;SDS011;27863;49.440;11.102;2022-12-07T03:01:52;8.33;;;7.53;;
42194;SDS011;27863;49.440;11.102;2022-12-07T03:12:06;9.03;;;7.80;;
42194;SDS011;27863;49.440;11.102;2022-12-07T03:15:32;8.20;;;7.40;;
42194;SDS011;27863;49.440;11.102;2022-12-07T03:18:33;11.50;;;8.43;;
42194;SDS011;27863;49.440;11.102;2022-12-07T03:21:38;8.60;;;7.80;;
42194;SDS011;27863;49.440;11.102;2022-12-07T03:24:45;9.37;;;8.50;;
42194;SDS011;27863;49.440;11.102;2022-12-07T03:27:52;9.73;;;8.73;;
42194;SDS011;27863;49.440;11.102;2022-12-07T03:31:21;8.43;;;7.63;;
42194;SDS011;27863;49.440;11.102;2022-12-07T03:34:24;10.37;;;8.63;;
42194;SDS011;27863;49.440;11.102;2022-12-07T03:37:34;9.70;;;8.80;;
42194;SDS011;27863;49.440;11.102;2022-12-07T03:40:47;8.93;;;8.03;;
42194;SDS011;27863;49.440;11.102;2022-12-07T03:43:50;9.47;;;8.47;;
42194;SDS011;27863;49.440;11.102;2022-12-07T03:50:28;8.67;;;7.83;;
42194;SDS011;27863;49.440;11.102;2022-12-07T03:57:22;9.23;;;8.27;;
42194;SDS011;27863;49.440;11.102;2022-12-07T04:00:24;9.20;;;8.23;;
42194;SDS011;27863;49.440;11.102;2022-12-07T04:03:25;9.53;;;8.57;;
42194;SDS011;27863;49.440;11.102;2022-12-07T04:06:25;8.90;;;8.03;;
42194;SDS011;27863;49.440;11.102;2022-12-07T04:09:26;8.97;;;8.10;;
42194;SDS011;27863;49.440;11.102;2022-12-07T04:12:27;9.43;;;8.67;;
42194;SDS011;27863;49.440;11.102;2022-12-07T04:15:29;11.97;;;10.00;;
42194;SDS011;27863;49.440;11.102;2022-12-07T04:18:30;11.33;;;9.20;;
42194;SDS011;27863;49.440;11.102;2022-12-07T04:21:31;9.17;;;8.27;;
42194;SDS011;27863;49.440;11.102;2022-12-07T04:24:34;14.13;;;8.23;;
42194;SDS011;27863;49.440;11.102;2022-12-07T04:27:35;9.77;;;8.87;;
42194;SDS011;27863;49.440;11.102;2022-12-07T04:30:36;11.07;;;9.90;;
42194;SDS011;27863;49.440;11.102;2022-12-07T04:33:36;10.50;;;9.50;;
42194;SDS011;27863;49.440;11.102;2022-12-07T04:36:37;14.93;;;9.53;;
42194;SDS011;27863;49.440;11.102;2022-12-07T04:39:39;10.63;;;9.57;;
42194;SDS011;27863;49.440;11.102;2022-12-07T04:42:40;11.13;;;9.37;;
42194;SDS011;27863;49.440;11.102;2022-12-07T04:45:45;12.20;;;8.87;;
42194;SDS011;27863;49.440;11.102;2022-12-07T04:48:46;9.77;;;8.87;;
42194;SDS011;27863;49.440;11.102;2022-12-07T04:51:47;11.17;;;10.07;;
42194;SDS011;27863;49.440;11.102;2022-12-07T04:54:47;11.07;;;10.03;;
42194;SDS011;27863;49.440;11.102;2022-12-07T04:57:48;10.83;;;9.10;;
42194;SDS011;27863;49.440;11.102;2022-12-07T05:00:53;10.80;;;9.80;;
42194;SDS011;27863;49.440;11.102;2022-12-07T05:03:54;10.50;;;9.50;;
42194;SDS011;27863;49.440;11.102;2022-12-07T05:06:56;10.77;;;9.10;;
42194;SDS011;27863;49.440;11.102;2022-12-07T05:09:56;10.67;;;9.67;;
42194;SDS011;27863;49.440;11.102;2022-12-07T05:12:57;9.77;;;8.83;;
42194;SDS011;27863;49.440;11.102;2022-12-07T05:15:58;11.17;;;9.97;;
42194;SDS011;27863;49.440;11.102;2022-12-07T05:18:58;9.90;;;8.90;;
42194;SDS011;27863;49.440;11.102;2022-12-07T05:21:59;11.73;;;10.63;;
42194;SDS011;27863;49.440;11.102;2022-12-07T05:25:00;12.20;;;9.83;;
42194;SDS011;27863;49.440;11.102;2022-12-07T05:28:00;11.50;;;10.40;;
42194;SDS011;27863;49.440;11.102;2022-12-07T05:31:02;10.57;;;9.57;;
42194;SDS011;27863;49.440;11.102;2022-12-07T05:34:03;10.47;;;9.47;;
42194;SDS011;27863;49.440;11.102;2022-12-07T05:37:03;11.60;;;10.53;;
42194;SDS011;27863;49.440;11.102;2022-12-07T05:40:04;11.27;;;10.07;;
42194;SDS011;27863;49.440;11.102;2022-12-07T05:43:05;11.70;;;10.47;;
42194;SDS011;27863;49.440;11.102;2022-12-07T05:46:06;10.63;;;9.57;;
42194;SDS011;27863;49.440;11.102;2022-12-07T05:49:07;10.77;;;9.67;;
42194;SDS011;27863;49.440;11.102;2022-12-07T05:52:09;11.30;;;10.13;;
42194;SDS011;27863;49.440;11.102;2022-12-07T05:55:10;12.67;;;10.93;;
42194;SDS011;27863;49.440;11.102;2022-12-07T05:58:10;12.40;;;11.20;;
42194;SDS011;27863;49.440;11.102;2022-12-07T06:01:30;12.17;;;10.93;;
42194;SDS011;27863;49.440;11.102;2022-12-07T06:04:32;12.20;;;10.70;;
42194;SDS011;27863;49.440;11.102;2022-12-07T06:07:37;13.83;;;12.00;;
42194;SDS011;27863;49.440;11.102;2022-12-07T06:10:37;12.20;;;11.00;;
42194;SDS011;27863;49.440;11.102;2022-12-07T06:13:38;12.43;;;10.23;;
42194;SDS011;27863;49.440;11.102;2022-12-07T06:16:40;16.77;;;11.90;;
42194;SDS011;27863;49.440;11.102;2022-12-07T06:19:41;11.33;;;10.23;;
42194;SDS011;27863;49.440;11.102;2022-12-07T06:22:42;12.90;;;11.63;;
42194;SDS011;27863;49.440;11.102;2022-12-07T06:25:45;13.30;;;12.00;;
42194;SDS011;27863;49.440;11.102;2022-12-07T06:28:46;12.57;;;11.27;;
42194;SDS011;27863;49.440;11.102;2022-12-07T06:31:47;12.70;;;11.40;;
42194;SDS011;27863;49.440;11.102;2022-12-07T06:34:49;13.40;;;12.00;;
42194;SDS011;27863;49.440;11.102;2022-12-07T06:37:49;12.57;;;11.27;;
42194;SDS011;27863;49.440;11.102;2022-12-07T06:40:50;12.40;;;11.20;;
42194;SDS011;27863;49.440;11.102;2022-12-07T06:43:53;13.33;;;11.60;;
42194;SDS011;27863;49.440;11.102;2022-12-07T06:46:59;11.07;;;9.87;;
42194;SDS011;27863;49.440;11.102;2022-12-07T06:50:00;13.17;;;11.17;;
42194;SDS011;27863;49.440;11.102;2022-12-07T06:53:01;15.43;;;11.40;;
42194;SDS011;27863;49.440;11.102;2022-12-07T06:56:07;13.73;;;11.07;;
42194;SDS011;27863;49.440;11.102;2022-12-07T06:59:07;13.07;;;11.67;;
42194;SDS011;27863;49.440;11.102;2022-12-07T07:02:10;11.50;;;10.40;;
42194;SDS011;27863;49.440;11.102;2022-12-07T07:05:11;12.70;;;11.37;;
42194;SDS011;27863;49.440;11.102;2022-12-07T07:08:12;12.27;;;10.67;;
42194;SDS011;27863;49.440;11.102;2022-12-07T07:11:14;13.17;;;10.80;;
42194;SDS011;27863;49.440;11.102;2022-12-07T07:14:15;12.40;;;10.77;;
42194;SDS011;27863;49.440;11.102;2022-12-07T07:17:20;17.87;;;11.13;;
42194;SDS011;27863;49.440;11.102;2022-12-07T07:20:21;13.70;;;10.93;;
42194;SDS011;27863;49.440;11.102;2022-12-07T07:23:23;12.37;;;11.07;;
42194;SDS011;27863;49.440;11.102;2022-12-07T07:26:24;12.00;;;10.80;;
42194;SDS011;27863;49.440;11.102;2022-12-07T07:29:25;10.90;;;9.77;;
42194;SDS011;27863;49.440;11.102;2022-12-07T07:32:25;11.60;;;10.40;;
42194;SDS011;27863;49.440;11.102;2022-12-07T07:35:27;17.50;;;10.57;;
42194;SDS011;27863;49.440;11.102;2022-12-07T07:38:29;11.00;;;9.90;;
42194;SDS011;27863;49.440;11.102;2022-12-07T07:41:29;12.67;;;11.37;;
42194;SDS011;27863;49.440;11.102;2022-12-07T07:44:31;13.63;;;11.03;;
42194;SDS011;27863;49.440;11.102;2022-12-07T07:47:32;12.80;;;11.07;;
42194;SDS011;27863;49.440;11.102;2022-12-07T07:50:33;12.57;;;11.10;;
42194;SDS011;27863;49.440;11.102;2022-12-07T07:53:48;13.90;;;10.13;;
42194;SDS011;27863;49.440;11.102;2022-12-07T07:56:51;12.37;;;11.13;;
42194;SDS011;27863;49.440;11.102;2022-12-07T07:59:53;12.13;;;10.70;;
42194;SDS011;27863;49.440;11.102;2022-12-07T08:02:53;11.73;;;10.53;;
42194;SDS011;27863;49.440;11.102;2022-12-07T08:05:54;13.27;;;11.97;;
42194;SDS011;27863;49.440;11.102;2022-12-07T08:08:55;13.77;;;12.43;;
42194;SDS011;27863;49.440;11.102;2022-12-07T08:11:58;14.63;;;11.03;;
42194;SDS011;27863;49.440;11.102;2022-12-07T08:14:58;15.57;;;12.47;;
42194;SDS011;27863;49.440;11.102;2022-12-07T08:17:59;12.07;;;10.87;;
42194;SDS011;27863;49.440;11.102;2022-12-07T08:21:00;13.00;;;11.20;;
42194;SDS011;27863;49.440;11.102;2022-12-07T08:24:03;14.37;;;11.70;;
42194;SDS011;27863;49.440;11.102;2022-12-07T08:27:05;13.23;;;11.87;;
42194;SDS011;27863;49.440;11.102;2022-12-07T08:30:06;13.33;;;11.93;;
42194;SDS011;27863;49.440;11.102;2022-12-07T08:33:07;11.77;;;10.57;;
42194;SDS011;27863;49.440;11.102;2022-12-07T08:36:10;16.87;;;11.03;;
42194;SDS011;27863;49.440;11.102;2022-12-07T08:39:12;12.47;;;11.27;;
42194;SDS011;27863;49.440;11.102;2022-12-07T08:42:14;11.53;;;10.43;;
42194;SDS011;27863;49.440;11.102;2022-12-07T08:45:15;11.40;;;10.30;;
42194;SDS011;27863;49.440;11.102;2022-12-07T08:48:18;13.00;;;9.93;;
42194;SDS011;27863;49.440;11.102;2022-12-07T08:51:22;12.70;;;9.70;;
42194;SDS011;27863;49.440;11.102;2022-12-07T08:54:23;13.43;;;10.97;;
42194;SDS011;27863;49.440;11.102;2022-12-07T08:57:25;13.10;;;11.67;;
42194;SDS011;27863;49.440;11.102;2022-12-07T09:00:28;11.57;;;10.23;;
42194;SDS011;27863;49.440;11.102;2022-12-07T09:03:28;10.53;;;9.43;;
42194;SDS011;27863;49.440;11.102;2022-12-07T09:06:29;11.63;;;10.43;;
42194;SDS011;27863;49.440;11.102;2022-12-07T09:09:29;10.87;;;9.77;;
42194;SDS011;27863;49.440;11.102;2022-12-07T09:12:30;10.83;;;9.73;;
42194;SDS011;27863;49.440;11.102;2022-12-07T09:15:32;10.47;;;9.37;;
42194;SDS011;27863;49.440;11.102;2022-12-07T09:18:33;11.47;;;10.20;;
42194;SDS011;27863;49.440;11.102;2022-12-07T09:21:33;14.40;;;9.07;;
42194;SDS011;27863;49.440;11.102;2022-12-07T09:24:36;8.60;;;7.73;;
42194;SDS011;27863;49.440;11.102;2022-12-07T09:27:45;10.60;;;8.80;;
42194;SDS011;27863;49.440;11.102;2022-12-07T09:30:46;12.50;;;7.87;;
42194;SDS011;27863;49.440;11.102;2022-12-07T09:33:52;9.83;;;8.57;;
42194;SDS011;27863;49.440;11.102;2022-12-07T09:36:54;8.20;;;7.33;;
42194;SDS011;27863;49.440;11.102;2022-12-07T09:39:57;8.17;;;7.33;;
42194;SDS011;27863;49.440;11.102;2022-12-07T09:43:00;9.40;;;8.60;;
42194;SDS011;27863;49.440;11.102;2022-12-07T09:46:01;9.83;;;7.63;;
42194;SDS011;27863;49.440;11.102;2022-12-07T09:49:05;11.57;;;9.97;;
42194;SDS011;27863;49.440;11.102;2022-12-07T09:55:26;9.10;;;7.50;;
42194;SDS011;27863;49.440;11.102;2022-12-07T09:58:29;8.50;;;7.70;;
42194;SDS011;27863;49.440;11.102;2022-12-07T10:01:32;8.30;;;7.50;;
42194;SDS011;27863;49.440;11.102;2022-12-07T10:04:33;7.83;;;6.93;;
42194;SDS011;27863;49.440;11.102;2022-12-07T10:07:34;10.50;;;9.33;;
42194;SDS011;27863;49.440;11.102;2022-12-07T10:10:36;8.07;;;7.17;;
42194;SDS011;27863;49.440;11.102;2022-12-07T10:13:39;9.90;;;8.90;;
42194;SDS011;27863;49.440;11.102;2022-12-07T10:16:42;8.30;;;7.50;;
42194;SDS011;27863;49.440;11.102;2022-12-07T10:19:43;9.77;;;8.77;;
42194;SDS011;27863;49.440;11.102;2022-12-07T10:26:17;11.17;;;7.63;;
42194;SDS011;27863;49.440;11.102;2022-12-07T10:29:39;11.60;;;8.13;;
42194;SDS011;27863;49.440;11.102;2022-12-07T10:32:41;8.93;;;8.03;;
42194;SDS011;27863;49.440;11.102;2022-12-07T10:35:44;8.73;;;7.87;;
42194;SDS011;27863;49.440;11.102;2022-12-07T10:38:45;9.40;;;8.40;;
42194;SDS011;27863;49.440;11.102;2022-12-07T10:41:58;8.23;;;7.13;;
42194;SDS011;27863;49.440;11.102;2022-12-07T10:59:19;8.37;;;7.57;;
42194;SDS011;27863;49.440;11.102;2022-12-07T11:13:04;11.33;;;7.50;;
42194;SDS011;27863;49.440;11.102;2022-12-07T11:30:28;9.57;;;8.13;;
42194;SDS011;27863;49.440;11.102;2022-12-07T11:33:43;9.07;;;6.90;;
42194;SDS011;27863;49.440;11.102;2022-12-07T11:36:50;8.83;;;8.00;;
42194;SDS011;27863;49.440;11.102;2022-12-07T11:43:23;8.17;;;7.37;;
42194;SDS011;27863;49.440;11.102;2022-12-07T11:46:35;9.43;;;8.63;;
42194;SDS011;27863;49.440;11.102;2022-12-07T11:49:51;9.03;;;8.20;;
42194;SDS011;27863;49.440;11.102;2022-12-07T12:02:38;8.97;;;8.07;;
42194;SDS011;27863;49.440;11.102;2022-12-07T12:05:44;8.67;;;7.87;;
42194;SDS011;27863;49.440;11.102;2022-12-07T12:08:53;7.93;;;7.23;;
42194;SDS011;27863;49.440;11.102;2022-12-07T12:21:55;9.30;;;8.40;;
42194;SDS011;27863;49.440;11.102;2022-12-07T12:25:21;9.10;;;8.23;;
42194;SDS011;27863;49.440;11.102;2022-12-07T12:32:14;8.07;;;7.27;;
42194;SDS011;27863;49.440;11.102;2022-12-07T12:38:31;8.27;;;7.47;;
42194;SDS011;27863;49.440;11.102;2022-12-07T12:45:17;8.83;;;7.90;;
42194;SDS011;27863;49.440;11.102;2022-12-07T12:48:39;8.77;;;7.97;;
42194;SDS011;27863;49.440;11.102;2022-12-07T12:51:40;7.67;;;7.07;;
42194;SDS011;27863;49.440;11.102;2022-12-07T13:01:38;9.97;;;8.93;;
42194;SDS011;27863;49.440;11.102;2022-12-07T13:04:48;8.10;;;7.37;;
42194;SDS011;27863;49.440;11.102;2022-12-07T13:08:00;9.67;;;8.73;;
42194;SDS011;27863;49.440;11.102;2022-12-07T13:17:59;8.97;;;8.07;;
42194;SDS011;27863;49.440;11.102;2022-12-07T13:24:11;9.67;;;8.67;;
42194;SDS011;27863;49.440;11.102;2022-12-07T13:27:13;9.03;;;7.30;;
42194;SDS011;27863;49.440;11.102;2022-12-07T13:30:15;8.00;;;7.20;;
42194;SDS011;27863;49.440;11.102;2022-12-07T13:33:18;9.30;;;8.43;;
42194;SDS011;27863;49.440;11.102;2022-12-07T13:36:27;7.50;;;6.83;;
42194;SDS011;27863;49.440;11.102;2022-12-07T13:39:35;9.47;;;8.50;;
42194;SDS011;27863;49.440;11.102;2022-12-07T13:42:46;9.03;;;8.13;;
42194;SDS011;27863;49.440;11.102;2022-12-07T13:45:47;10.10;;;8.33;;
42194;SDS011;27863;49.440;11.102;2022-12-07T13:49:19;8.97;;;8.07;;
42194;SDS011;27863;49.440;11.102;2022-12-07T13:52:25;11.13;;;9.17;;
42194;SDS011;27863;49.440;11.102;2022-12-07T13:55:27;11.47;;;9.80;;
42194;SDS011;27863;49.440;11.102;2022-12-07T13:58:30;15.43;;;9.20;;
42194;SDS011;27863;49.440;11.102;2022-12-07T14:01:31;10.30;;;9.20;;
42194;SDS011;27863;49.440;11.102;2022-12-07T14:04:34;10.60;;;9.57;;
42194;SDS011;27863;49.440;11.102;2022-12-07T14:43:30;10.90;;;9.73;;
42194;SDS011;27863;49.440;11.102;2022-12-07T14:46:32;9.70;;;8.70;;
42194;SDS011;27863;49.440;11.102;2022-12-07T14:49:32;10.27;;;9.17;;
42194;SDS011;27863;49.440;11.102;2022-12-07T14:52:35;10.73;;;9.73;;
42194;SDS011;27863;49.440;11.102;2022-12-07T14:55:36;11.43;;;9.20;;
42194;SDS011;27863;49.440;11.102;2022-12-07T14:58:38;9.80;;;8.80;;
42194;SDS011;27863;49.440;11.102;2022-12-07T15:01:39;9.90;;;8.97;;
42194;SDS011;27863;49.440;11.102;2022-12-07T15:04:40;9.33;;;8.43;;
42194;SDS011;27863;49.440;11.102;2022-12-07T15:07:44;8.60;;;7.80;;
42194;SDS011;27863;49.440;11.102;2022-12-07T15:10:45;7.77;;;6.97;;
42194;SDS011;27863;49.440;11.102;2022-12-07T15:13:47;7.87;;;7.07;;
42194;SDS011;27863;49.440;11.102;2022-12-07T15:17:09;9.23;;;8.33;;
42194;SDS011;27863;49.440;11.102;2022-12-07T15:20:13;9.53;;;8.53;;
42194;SDS011;27863;49.440;11.102;2022-12-07T15:23:18;10.10;;;9.20;;
42194;SDS011;27863;49.440;11.102;2022-12-07T15:26:18;9.70;;;8.83;;
42194;SDS011;27863;49.440;11.102;2022-12-07T15:29:20;10.13;;;9.23;;
42194;SDS011;27863;49.440;11.102;2022-12-07T15:32:23;8.97;;;8.07;;
42194;SDS011;27863;49.440;11.102;2022-12-07T15:35:24;11.00;;;9.87;;
42194;SDS011;27863;49.440;11.102;2022-12-07T15:38:24;10.80;;;9.77;;
42194;SDS011;27863;49.440;11.102;2022-12-07T15:41:27;12.73;;;9.80;;
42194;SDS011;27863;49.440;11.102;2022-12-07T15:44:28;10.43;;;9.37;;
42194;SDS011;27863;49.440;11.102;2022-12-07T15:47:48;9.97;;;8.87;;
42194;SDS011;27863;49.440;11.102;2022-12-07T15:50:49;10.80;;;9.30;;
42194;SDS011;27863;49.440;11.102;2022-12-07T15:53:51;10.37;;;9.37;;
42194;SDS011;27863;49.440;11.102;2022-12-07T15:56:51;11.87;;;9.43;;
42194;SDS011;27863;49.440;11.102;2022-12-07T15:59:52;11.97;;;9.73;;
42194;SDS011;27863;49.440;11.102;2022-12-07T16:02:55;10.97;;;9.77;;
42194;SDS011;27863;49.440;11.102;2022-12-07T16:05:57;10.30;;;9.30;;
42194;SDS011;27863;49.440;11.102;2022-12-07T16:09:03;10.40;;;9.40;;
42194;SDS011;27863;49.440;11.102;2022-12-07T16:12:04;11.37;;;10.00;;
42194;SDS011;27863;49.440;11.102;2022-12-07T16:15:05;11.00;;;9.90;;
42194;SDS011;27863;49.440;11.102;2022-12-07T16:18:07;9.97;;;9.10;;
42194;SDS011;27863;49.440;11.102;2022-12-07T16:21:08;11.13;;;9.83;;
42194;SDS011;27863;49.440;11.102;2022-12-07T16:24:11;10.63;;;8.53;;
42194;SDS011;27863;49.440;11.102;2022-12-07T16:27:13;9.83;;;8.93;;
42194;SDS011;27863;49.440;11.102;2022-12-07T16:30:14;11.43;;;10.23;;
42194;SDS011;27863;49.440;11.102;2022-12-07T16:33:16;10.73;;;9.63;;
42194;SDS011;27863;49.440;11.102;2022-12-07T16:36:17;9.70;;;8.80;;
42194;SDS011;27863;49.440;11.102;2022-12-07T16:39:22;10.67;;;9.57;;
42194;SDS011;27863;49.440;11.102;2022-12-07T16:42:23;9.60;;;8.70;;
42194;SDS011;27863;49.440;11.102;2022-12-07T16:45:24;10.90;;;9.80;;
42194;SDS011;27863;49.440;11.102;2022-12-07T16:48:26;11.93;;;10.83;;
42194;SDS011;27863;49.440;11.102;2022-12-07T16:51:28;12.23;;;10.90;;
42194;SDS011;27863;49.440;11.102;2022-12-07T16:54:28;11.97;;;10.80;;
42194;SDS011;27863;49.440;11.102;2022-12-07T16:57:32;10.30;;;9.30;;
42194;SDS011;27863;49.440;11.102;2022-12-07T17:00:33;11.17;;;9.97;;
42194;SDS011;27863;49.440;11.102;2022-12-07T17:03:34;11.67;;;10.57;;
42194;SDS011;27863;49.440;11.102;2022-12-07T17:06:34;12.53;;;11.27;;
42194;SDS011;27863;49.440;11.102;2022-12-07T17:09:35;11.87;;;10.53;;
42194;SDS011;27863;49.440;11.102;2022-12-07T17:12:37;11.67;;;10.00;;
42194;SDS011;27863;49.440;11.102;2022-12-07T17:15:39;13.40;;;11.97;;
42194;SDS011;27863;49.440;11.102;2022-12-07T17:18:40;12.17;;;10.87;;
42194;SDS011;27863;49.440;11.102;2022-12-07T17:21:41;13.57;;;11.97;;
42194;SDS011;27863;49.440;11.102;2022-12-07T17:24:42;14.17;;;10.80;;
42194;SDS011;27863;49.440;11.102;2022-12-07T17:27:44;12.93;;;10.33;;
42194;SDS011;27863;49.440;11.102;2022-12-07T17:30:48;13.83;;;12.10;;
42194;SDS011;27863;49.440;11.102;2022-12-07T17:33:49;13.93;;;12.60;;
42194;SDS011;27863;49.440;11.102;2022-12-07T17:36:51;14.10;;;11.93;;
42194;SDS011;27863;49.440;11.102;2022-12-07T17:39:52;15.20;;;12.83;;
42194;SDS011;27863;49.440;11.102;2022-12-07T17:42:57;13.67;;;12.30;;
42194;SDS011;27863;49.440;11.102;2022-12-07T17:45:57;15.07;;;12.80;;
42194;SDS011;27863;49.440;11.102;2022-12-07T17:48:58;13.57;;;12.23;;
42194;SDS011;27863;49.440;11.102;2022-12-07T17:52:02;15.10;;;13.33;;
42194;SDS011;27863;49.440;11.102;2022-12-07T17:55:21;14.47;;;13.07;;
42194;SDS011;27863;49.440;11.102;2022-12-07T17:58:21;14.10;;;12.37;;
42194;SDS011;27863;49.440;11.102;2022-12-07T18:01:24;14.60;;;13.20;;
42194;SDS011;27863;49.440;11.102;2022-12-07T18:04:25;14.60;;;13.10;;
42194;SDS011;27863;49.440;11.102;2022-12-07T18:07:25;17.90;;;13.87;;
42194;SDS011;27863;49.440;11.102;2022-12-07T18:10:27;13.23;;;11.93;;
42194;SDS011;27863;49.440;11.102;2022-12-07T18:13:27;14.40;;;12.93;;
42194;SDS011;27863;49.440;11.102;2022-12-07T18:16:37;15.77;;;14.07;;
42194;SDS011;27863;49.440;11.102;2022-12-07T18:19:37;18.30;;;14.30;;
42194;SDS011;27863;49.440;11.102;2022-12-07T18:22:38;15.60;;;13.93;;
42194;SDS011;27863;49.440;11.102;2022-12-07T18:25:39;14.83;;;12.93;;
42194;SDS011;27863;49.440;11.102;2022-12-07T18:28:42;14.63;;;13.13;;
42194;SDS011;27863;49.440;11.102;2022-12-07T18:31:44;13.90;;;12.60;;
42194;SDS011;27863;49.440;11.102;2022-12-07T18:34:48;13.10;;;11.90;;
42194;SDS011;27863;49.440;11.102;2022-12-07T18:37:49;12.70;;;11.50;;
42194;SDS011;27863;49.440;11.102;2022-12-07T18:40:49;13.10;;;11.43;;
42194;SDS011;27863;49.440;11.102;2022-12-07T18:43:50;13.33;;;12.03;;
42194;SDS011;27863;49.440;11.102;2022-12-07T18:46:51;17.70;;;12.63;;
42194;SDS011;27863;49.440;11.102;2022-12-07T18:49:51;13.57;;;12.27;;
42194;SDS011;27863;49.440;11.102;2022-12-07T18:52:52;15.03;;;13.33;;
42194;SDS011;27863;49.440;11.102;2022-12-07T18:56:02;12.63;;;11.47;;
42194;SDS011;27863;49.440;11.102;2022-12-07T18:59:05;13.47;;;12.07;;
42194;SDS011;27863;49.440;11.102;2022-12-07T19:02:28;13.20;;;11.90;;
42194;SDS011;27863;49.440;11.102;2022-12-07T19:05:30;13.43;;;12.00;;
42194;SDS011;27863;49.440;11.102;2022-12-07T19:08:30;12.10;;;10.97;;
42194;SDS011;27863;49.440;11.102;2022-12-07T19:11:33;15.33;;;11.70;;
42194;SDS011;27863;49.440;11.102;2022-12-07T19:14:49;14.10;;;12.70;;
42194;SDS011;27863;49.440;11.102;2022-12-07T19:17:50;13.97;;;12.53;;
42194;SDS011;27863;49.440;11.102;2022-12-07T19:20:51;13.33;;;12.00;;
42194;SDS011;27863;49.440;11.102;2022-12-07T19:23:53;14.47;;;13.00;;
42194;SDS011;27863;49.440;11.102;2022-12-07T19:26:54;15.10;;;13.03;;
42194;SDS011;27863;49.440;11.102;2022-12-07T19:29:55;15.97;;;13.40;;
42194;SDS011;27863;49.440;11.102;2022-12-07T19:32:55;16.97;;;15.20;;
42194;SDS011;27863;49.440;11.102;2022-12-07T19:35:56;16.37;;;14.67;;
42194;SDS011;27863;49.440;11.102;2022-12-07T19:38:57;13.10;;;11.97;;
42194;SDS011;27863;49.440;11.102;2022-12-07T19:41:57;20.47;;;18.47;;
42194;SDS011;27863;49.440;11.102;2022-12-07T19:44:59;43.00;;;25.33;;
42194;SDS011;27863;49.440;11.102;2022-12-07T19:48:01;14.43;;;13.03;;
42194;SDS011;27863;49.440;11.102;2022-12-07T19:51:03;15.23;;;12.77;;
42194;SDS011;27863;49.440;11.102;2022-12-07T19:54:08;12.97;;;11.80;;
42194;SDS011;27863;49.440;11.102;2022-12-07T19:57:09;13.00;;;11.80;;
42194;SDS011;27863;49.440;11.102;2022-12-07T20:00:14;13.90;;;12.00;;
42194;SDS011;27863;49.440;11.102;2022-12-07T20:03:19;12.93;;;11.73;;
42194;SDS011;27863;49.440;11.102;2022-12-07T20:06:20;12.17;;;10.97;;
42194;SDS011;27863;49.440;11.102;2022-12-07T20:09:23;13.90;;;12.60;;
42194;SDS011;27863;49.440;11.102;2022-12-07T20:12:23;15.50;;;12.07;;
42194;SDS011;27863;49.440;11.102;2022-12-07T20:15:42;13.60;;;12.20;;
42194;SDS011;27863;49.440;11.102;2022-12-07T20:18:45;14.23;;;11.87;;
42194;SDS011;27863;49.440;11.102;2022-12-07T20:21:46;12.43;;;11.23;;
42194;SDS011;27863;49.440;11.102;2022-12-07T20:24:48;17.03;;;11.97;;
42194;SDS011;27863;49.440;11.102;2022-12-07T20:27:48;12.83;;;11.33;;
42194;SDS011;27863;49.440;11.102;2022-12-07T20:30:50;15.53;;;12.97;;
42194;SDS011;27863;49.440;11.102;2022-12-07T20:33:52;14.00;;;12.60;;
42194;SDS011;27863;49.440;11.102;2022-12-07T20:36:53;14.23;;;12.83;;